sensor_id;sensor_type;location;lat;lon;timestamp;P1;durP1;ratioP1;P2;durP2;ratioP2
42832;SDS011;28479;51.478;5.692;2022-09-09T00:04:26;2.93;;;0.83;;
42832;SDS011;28479;51.478;5.692;2022-09-09T00:12:47;0.95;;;0.85;;
42832;SDS011;28479;51.478;5.692;2022-09-09T00:15:24;1.17;;;0.90;;
42832;SDS011;28479;51.478;5.692;2022-09-09T00:18:13;2.08;;;1.20;;
42832;SDS011;28479;51.478;5.692;2022-09-09T00:20:48;2.38;;;0.77;;
42832;SDS011;28479;51.478;5.692;2022-09-09T00:28:22;0.88;;;0.82;;
42832;SDS011;28479;51.478;5.692;2022-09-09T00:30:50;2.50;;;1.17;;
42832;SDS011;28479;51.478;5.692;2022-09-09T00:33:17;1.48;;;1.25;;
42832;SDS011;28479;51.478;5.692;2022-09-09T00:35:56;1.17;;;0.88;;
42832;SDS011;28479;51.478;5.692;2022-09-09T00:38:36;1.90;;;1.33;;
42832;SDS011;28479;51.478;5.692;2022-09-09T00:41:22;3.53;;;1.35;;
42832;SDS011;28479;51.478;5.692;2022-09-09T00:44:03;1.45;;;0.95;;
42832;SDS011;28479;51.478;5.692;2022-09-09T00:49:15;1.10;;;0.95;;
42832;SDS011;28479;51.478;5.692;2022-09-09T00:57:31;2.55;;;1.17;;
42832;SDS011;28479;51.478;5.692;2022-09-09T00:59:59;4.07;;;1.40;;
42832;SDS011;28479;51.478;5.692;2022-09-09T01:08:15;1.38;;;1.25;;
42832;SDS011;28479;51.478;5.692;2022-09-09T01:11:03;0.93;;;0.88;;
42832;SDS011;28479;51.478;5.692;2022-09-09T01:13:31;3.53;;;1.52;;
42832;SDS011;28479;51.478;5.692;2022-09-09T01:16:00;1.88;;;1.45;;
42832;SDS011;28479;51.478;5.692;2022-09-09T01:18:33;2.95;;;1.20;;
42832;SDS011;28479;51.478;5.692;2022-09-09T01:24:14;2.85;;;1.38;;
42832;SDS011;28479;51.478;5.692;2022-09-09T01:26:52;4.63;;;1.98;;
42832;SDS011;28479;51.478;5.692;2022-09-09T01:29:23;2.97;;;1.20;;
42832;SDS011;28479;51.478;5.692;2022-09-09T01:31:59;7.63;;;1.70;;
42832;SDS011;28479;51.478;5.692;2022-09-09T01:34:33;3.55;;;1.88;;
42832;SDS011;28479;51.478;5.692;2022-09-09T01:37:10;3.15;;;1.40;;
42832;SDS011;28479;51.478;5.692;2022-09-09T01:39:38;4.85;;;1.40;;
42832;SDS011;28479;51.478;5.692;2022-09-09T01:42:06;1.27;;;1.17;;
42832;SDS011;28479;51.478;5.692;2022-09-09T01:44:34;2.00;;;1.63;;
42832;SDS011;28479;51.478;5.692;2022-09-09T01:47:01;6.55;;;1.60;;
42832;SDS011;28479;51.478;5.692;2022-09-09T01:49:27;8.32;;;1.98;;
42832;SDS011;28479;51.478;5.692;2022-09-09T01:51:53;5.28;;;1.63;;
42832;SDS011;28479;51.478;5.692;2022-09-09T01:54:20;2.95;;;1.60;;
42832;SDS011;28479;51.478;5.692;2022-09-09T01:57:05;3.40;;;1.60;;
42832;SDS011;28479;51.478;5.692;2022-09-09T02:00:00;3.45;;;1.75;;
42832;SDS011;28479;51.478;5.692;2022-09-09T02:07:39;8.13;;;1.95;;
42832;SDS011;28479;51.478;5.692;2022-09-09T02:10:27;5.95;;;2.05;;
42832;SDS011;28479;51.478;5.692;2022-09-09T02:13:18;7.72;;;2.40;;
42832;SDS011;28479;51.478;5.692;2022-09-09T02:18:35;7.05;;;2.13;;
42832;SDS011;28479;51.478;5.692;2022-09-09T02:21:07;2.10;;;1.90;;
42832;SDS011;28479;51.478;5.692;2022-09-09T02:23:36;2.53;;;1.65;;
42832;SDS011;28479;51.478;5.692;2022-09-09T02:26:04;8.45;;;2.00;;
42832;SDS011;28479;51.478;5.692;2022-09-09T02:28:32;1.67;;;1.55;;
42832;SDS011;28479;51.478;5.692;2022-09-09T02:31:01;13.90;;;2.60;;
42832;SDS011;28479;51.478;5.692;2022-09-09T02:33:28;4.53;;;1.88;;
42832;SDS011;28479;51.478;5.692;2022-09-09T02:35:59;4.18;;;1.75;;
42832;SDS011;28479;51.478;5.692;2022-09-09T02:38:28;3.03;;;1.92;;
42832;SDS011;28479;51.478;5.692;2022-09-09T02:40:58;6.63;;;1.95;;
42832;SDS011;28479;51.478;5.692;2022-09-09T02:43:24;2.92;;;1.95;;
42832;SDS011;28479;51.478;5.692;2022-09-09T02:45:57;12.98;;;2.20;;
42832;SDS011;28479;51.478;5.692;2022-09-09T02:48:46;3.95;;;2.10;;
42832;SDS011;28479;51.478;5.692;2022-09-09T02:51:32;8.05;;;1.52;;
42832;SDS011;28479;51.478;5.692;2022-09-09T02:57:00;10.45;;;1.77;;
42832;SDS011;28479;51.478;5.692;2022-09-09T02:59:48;4.05;;;2.00;;
42832;SDS011;28479;51.478;5.692;2022-09-09T03:02:16;4.78;;;1.75;;
42832;SDS011;28479;51.478;5.692;2022-09-09T03:04:43;6.25;;;1.65;;
42832;SDS011;28479;51.478;5.692;2022-09-09T03:07:10;8.80;;;2.40;;
42832;SDS011;28479;51.478;5.692;2022-09-09T03:09:36;12.00;;;2.20;;
42832;SDS011;28479;51.478;5.692;2022-09-09T03:12:01;3.80;;;1.60;;
42832;SDS011;28479;51.478;5.692;2022-09-09T03:14:29;3.25;;;1.83;;
42832;SDS011;28479;51.478;5.692;2022-09-09T03:16:55;11.20;;;2.22;;
42832;SDS011;28479;51.478;5.692;2022-09-09T03:19:22;9.80;;;2.78;;
42832;SDS011;28479;51.478;5.692;2022-09-09T03:21:49;6.32;;;1.98;;
42832;SDS011;28479;51.478;5.692;2022-09-09T03:24:14;2.42;;;1.55;;
42832;SDS011;28479;51.478;5.692;2022-09-09T03:26:41;1.90;;;1.60;;
42832;SDS011;28479;51.478;5.692;2022-09-09T03:29:09;4.53;;;1.88;;
42832;SDS011;28479;51.478;5.692;2022-09-09T03:31:37;3.90;;;1.65;;
42832;SDS011;28479;51.478;5.692;2022-09-09T03:34:03;5.13;;;2.00;;
42832;SDS011;28479;51.478;5.692;2022-09-09T03:36:29;5.78;;;2.53;;
42832;SDS011;28479;51.478;5.692;2022-09-09T03:38:55;8.45;;;1.88;;
42832;SDS011;28479;51.478;5.692;2022-09-09T03:41:21;3.90;;;2.50;;
42832;SDS011;28479;51.478;5.692;2022-09-09T03:43:49;6.55;;;1.45;;
42832;SDS011;28479;51.478;5.692;2022-09-09T03:46:16;7.53;;;2.13;;
42832;SDS011;28479;51.478;5.692;2022-09-09T03:48:42;3.45;;;2.28;;
42832;SDS011;28479;51.478;5.692;2022-09-09T03:51:07;14.40;;;1.95;;
42832;SDS011;28479;51.478;5.692;2022-09-09T03:53:33;4.00;;;2.38;;
42832;SDS011;28479;51.478;5.692;2022-09-09T03:55:59;11.43;;;2.55;;
42832;SDS011;28479;51.478;5.692;2022-09-09T03:58:26;7.18;;;2.10;;
42832;SDS011;28479;51.478;5.692;2022-09-09T04:03:21;14.43;;;2.72;;
42832;SDS011;28479;51.478;5.692;2022-09-09T04:05:48;4.18;;;2.20;;
42832;SDS011;28479;51.478;5.692;2022-09-09T04:08:14;6.55;;;2.15;;
42832;SDS011;28479;51.478;5.692;2022-09-09T04:10:39;8.02;;;2.00;;
42832;SDS011;28479;51.478;5.692;2022-09-09T04:13:05;2.60;;;2.05;;
42832;SDS011;28479;51.478;5.692;2022-09-09T04:15:31;2.95;;;1.70;;
42832;SDS011;28479;51.478;5.692;2022-09-09T04:17:57;2.63;;;1.73;;
42832;SDS011;28479;51.478;5.692;2022-09-09T04:20:23;3.85;;;1.70;;
42832;SDS011;28479;51.478;5.692;2022-09-09T04:22:48;6.22;;;1.92;;
42832;SDS011;28479;51.478;5.692;2022-09-09T04:25:14;6.68;;;2.03;;
42832;SDS011;28479;51.478;5.692;2022-09-09T04:27:40;4.13;;;1.42;;
42832;SDS011;28479;51.478;5.692;2022-09-09T04:30:06;6.40;;;1.90;;
42832;SDS011;28479;51.478;5.692;2022-09-09T04:32:33;10.93;;;2.08;;
42832;SDS011;28479;51.478;5.692;2022-09-09T04:34:58;7.88;;;2.03;;
42832;SDS011;28479;51.478;5.692;2022-09-09T04:37:24;5.28;;;2.25;;
42832;SDS011;28479;51.478;5.692;2022-09-09T04:39:50;9.82;;;1.83;;
42832;SDS011;28479;51.478;5.692;2022-09-09T04:42:15;10.70;;;2.10;;
42832;SDS011;28479;51.478;5.692;2022-09-09T04:44:42;4.40;;;1.52;;
42832;SDS011;28479;51.478;5.692;2022-09-09T04:47:09;10.00;;;1.77;;
42832;SDS011;28479;51.478;5.692;2022-09-09T04:49:35;3.35;;;1.67;;
42832;SDS011;28479;51.478;5.692;2022-09-09T04:52:01;6.07;;;1.77;;
42832;SDS011;28479;51.478;5.692;2022-09-09T04:54:28;10.35;;;2.40;;
42832;SDS011;28479;51.478;5.692;2022-09-09T04:56:54;2.88;;;1.55;;
42832;SDS011;28479;51.478;5.692;2022-09-09T04:59:20;6.13;;;1.52;;
42832;SDS011;28479;51.478;5.692;2022-09-09T05:01:46;5.45;;;2.03;;
42832;SDS011;28479;51.478;5.692;2022-09-09T05:04:12;4.30;;;1.98;;
42832;SDS011;28479;51.478;5.692;2022-09-09T05:06:40;6.00;;;1.90;;
42832;SDS011;28479;51.478;5.692;2022-09-09T05:09:07;9.38;;;2.53;;
42832;SDS011;28479;51.478;5.692;2022-09-09T05:11:33;4.40;;;1.60;;
42832;SDS011;28479;51.478;5.692;2022-09-09T05:14:01;8.68;;;1.75;;
42832;SDS011;28479;51.478;5.692;2022-09-09T05:16:28;5.60;;;1.67;;
42832;SDS011;28479;51.478;5.692;2022-09-09T05:18:54;3.75;;;1.60;;
42832;SDS011;28479;51.478;5.692;2022-09-09T05:21:21;3.13;;;2.05;;
42832;SDS011;28479;51.478;5.692;2022-09-09T05:23:48;8.20;;;1.95;;
42832;SDS011;28479;51.478;5.692;2022-09-09T05:26:18;4.07;;;2.15;;
42832;SDS011;28479;51.478;5.692;2022-09-09T05:28:45;23.33;;;1.92;;
42832;SDS011;28479;51.478;5.692;2022-09-09T05:31:12;14.07;;;1.73;;
42832;SDS011;28479;51.478;5.692;2022-09-09T05:33:39;10.68;;;2.17;;
42832;SDS011;28479;51.478;5.692;2022-09-09T05:36:10;8.80;;;1.60;;
42832;SDS011;28479;51.478;5.692;2022-09-09T05:38:38;13.73;;;2.13;;
42832;SDS011;28479;51.478;5.692;2022-09-09T05:41:05;8.43;;;1.80;;
42832;SDS011;28479;51.478;5.692;2022-09-09T05:43:32;8.52;;;2.20;;
42832;SDS011;28479;51.478;5.692;2022-09-09T05:46:05;2.10;;;1.33;;
42832;SDS011;28479;51.478;5.692;2022-09-09T05:48:36;12.20;;;2.38;;
42832;SDS011;28479;51.478;5.692;2022-09-09T05:51:04;10.43;;;2.03;;
42832;SDS011;28479;51.478;5.692;2022-09-09T05:53:32;7.28;;;1.80;;
42832;SDS011;28479;51.478;5.692;2022-09-09T05:55:59;5.95;;;2.28;;
42832;SDS011;28479;51.478;5.692;2022-09-09T05:58:30;13.70;;;2.38;;
42832;SDS011;28479;51.478;5.692;2022-09-09T06:01:03;22.90;;;3.67;;
42832;SDS011;28479;51.478;5.692;2022-09-09T06:03:35;13.55;;;3.15;;
42832;SDS011;28479;51.478;5.692;2022-09-09T06:06:03;7.78;;;2.40;;
42832;SDS011;28479;51.478;5.692;2022-09-09T06:08:31;6.32;;;2.80;;
42832;SDS011;28479;51.478;5.692;2022-09-09T06:11:01;8.00;;;1.90;;
42832;SDS011;28479;51.478;5.692;2022-09-09T06:13:31;5.10;;;1.90;;
42832;SDS011;28479;51.478;5.692;2022-09-09T06:15:57;9.43;;;1.85;;
42832;SDS011;28479;51.478;5.692;2022-09-09T06:18:24;10.75;;;2.65;;
42832;SDS011;28479;51.478;5.692;2022-09-09T06:20:57;3.05;;;1.77;;
42832;SDS011;28479;51.478;5.692;2022-09-09T06:23:24;6.07;;;1.95;;
42832;SDS011;28479;51.478;5.692;2022-09-09T06:25:50;3.92;;;1.92;;
42832;SDS011;28479;51.478;5.692;2022-09-09T06:28:17;12.23;;;2.42;;
42832;SDS011;28479;51.478;5.692;2022-09-09T06:30:43;10.18;;;2.47;;
42832;SDS011;28479;51.478;5.692;2022-09-09T06:33:09;11.07;;;1.73;;
42832;SDS011;28479;51.478;5.692;2022-09-09T06:35:35;5.93;;;2.15;;
42832;SDS011;28479;51.478;5.692;2022-09-09T06:38:01;2.85;;;1.50;;
42832;SDS011;28479;51.478;5.692;2022-09-09T06:40:26;6.18;;;2.10;;
42832;SDS011;28479;51.478;5.692;2022-09-09T06:42:52;10.23;;;2.30;;
42832;SDS011;28479;51.478;5.692;2022-09-09T06:45:18;9.68;;;2.08;;
42832;SDS011;28479;51.478;5.692;2022-09-09T06:47:43;6.03;;;2.17;;
42832;SDS011;28479;51.478;5.692;2022-09-09T06:50:09;8.18;;;2.15;;
42832;SDS011;28479;51.478;5.692;2022-09-09T06:52:36;6.70;;;2.22;;
42832;SDS011;28479;51.478;5.692;2022-09-09T06:55:02;8.88;;;2.55;;
42832;SDS011;28479;51.478;5.692;2022-09-09T06:57:28;9.20;;;2.35;;
42832;SDS011;28479;51.478;5.692;2022-09-09T06:59:53;4.85;;;2.38;;
42832;SDS011;28479;51.478;5.692;2022-09-09T07:02:19;9.07;;;2.00;;
42832;SDS011;28479;51.478;5.692;2022-09-09T07:04:44;16.33;;;2.88;;
42832;SDS011;28479;51.478;5.692;2022-09-09T07:07:10;8.18;;;2.08;;
42832;SDS011;28479;51.478;5.692;2022-09-09T07:09:38;14.18;;;2.78;;
42832;SDS011;28479;51.478;5.692;2022-09-09T07:12:05;4.18;;;2.28;;
42832;SDS011;28479;51.478;5.692;2022-09-09T07:14:31;7.22;;;2.15;;
42832;SDS011;28479;51.478;5.692;2022-09-09T07:16:57;5.85;;;2.92;;
42832;SDS011;28479;51.478;5.692;2022-09-09T07:19:23;8.55;;;2.47;;
42832;SDS011;28479;51.478;5.692;2022-09-09T07:21:49;6.32;;;2.63;;
42832;SDS011;28479;51.478;5.692;2022-09-09T07:24:15;10.43;;;2.42;;
42832;SDS011;28479;51.478;5.692;2022-09-09T07:26:40;10.02;;;1.33;;
42832;SDS011;28479;51.478;5.692;2022-09-09T07:29:06;4.10;;;1.67;;
42832;SDS011;28479;51.478;5.692;2022-09-09T07:31:33;9.25;;;1.85;;
42832;SDS011;28479;51.478;5.692;2022-09-09T07:34:02;4.15;;;1.70;;
42832;SDS011;28479;51.478;5.692;2022-09-09T07:36:35;5.53;;;1.80;;
42832;SDS011;28479;51.478;5.692;2022-09-09T07:39:07;11.02;;;1.30;;
42832;SDS011;28479;51.478;5.692;2022-09-09T07:41:39;6.43;;;2.83;;
42832;SDS011;28479;51.478;5.692;2022-09-09T07:44:07;5.20;;;1.33;;
42832;SDS011;28479;51.478;5.692;2022-09-09T07:46:41;8.45;;;1.48;;
42832;SDS011;28479;51.478;5.692;2022-09-09T07:49:07;6.60;;;1.70;;
42832;SDS011;28479;51.478;5.692;2022-09-09T07:51:34;7.80;;;1.95;;
42832;SDS011;28479;51.478;5.692;2022-09-09T07:54:02;6.85;;;1.40;;
42832;SDS011;28479;51.478;5.692;2022-09-09T07:56:30;11.15;;;1.95;;
42832;SDS011;28479;51.478;5.692;2022-09-09T07:58:57;7.03;;;1.50;;
42832;SDS011;28479;51.478;5.692;2022-09-09T08:01:31;8.50;;;1.40;;
42832;SDS011;28479;51.478;5.692;2022-09-09T08:04:02;8.10;;;1.90;;
42832;SDS011;28479;51.478;5.692;2022-09-09T08:06:32;5.00;;;1.60;;
42832;SDS011;28479;51.478;5.692;2022-09-09T08:09:01;8.13;;;1.55;;
42832;SDS011;28479;51.478;5.692;2022-09-09T08:11:28;7.80;;;1.42;;
42832;SDS011;28479;51.478;5.692;2022-09-09T08:13:55;3.50;;;1.30;;
42832;SDS011;28479;51.478;5.692;2022-09-09T08:16:21;9.95;;;1.50;;
42832;SDS011;28479;51.478;5.692;2022-09-09T08:18:49;5.57;;;1.38;;
42832;SDS011;28479;51.478;5.692;2022-09-09T08:21:26;13.27;;;1.73;;
42832;SDS011;28479;51.478;5.692;2022-09-09T08:23:54;4.53;;;1.48;;
42832;SDS011;28479;51.478;5.692;2022-09-09T08:26:22;4.45;;;1.10;;
42832;SDS011;28479;51.478;5.692;2022-09-09T08:28:50;6.43;;;1.15;;
42832;SDS011;28479;51.478;5.692;2022-09-09T08:31:21;3.78;;;1.35;;
42832;SDS011;28479;51.478;5.692;2022-09-09T08:33:52;4.47;;;1.40;;
42832;SDS011;28479;51.478;5.692;2022-09-09T08:36:20;4.65;;;1.30;;
42832;SDS011;28479;51.478;5.692;2022-09-09T08:38:47;4.03;;;1.33;;
42832;SDS011;28479;51.478;5.692;2022-09-09T08:41:20;2.78;;;1.10;;
42832;SDS011;28479;51.478;5.692;2022-09-09T08:50:03;9.60;;;1.15;;
42832;SDS011;28479;51.478;5.692;2022-09-09T08:55:48;6.70;;;1.33;;
42832;SDS011;28479;51.478;5.692;2022-09-09T08:58:12;3.30;;;1.00;;
42832;SDS011;28479;51.478;5.692;2022-09-09T09:01:09;9.98;;;1.60;;
42832;SDS011;28479;51.478;5.692;2022-09-09T09:09:11;3.92;;;0.90;;
42832;SDS011;28479;51.478;5.692;2022-09-09T09:11:58;3.00;;;1.20;;
42832;SDS011;28479;51.478;5.692;2022-09-09T09:14:27;7.55;;;2.08;;
42832;SDS011;28479;51.478;5.692;2022-09-09T09:16:59;1.20;;;0.93;;
42832;SDS011;28479;51.478;5.692;2022-09-09T09:19:28;5.68;;;0.80;;
42832;SDS011;28479;51.478;5.692;2022-09-09T09:30:21;7.93;;;1.52;;
42832;SDS011;28479;51.478;5.692;2022-09-09T09:32:53;8.80;;;1.42;;
42832;SDS011;28479;51.478;5.692;2022-09-09T09:35:52;6.10;;;1.20;;
42832;SDS011;28479;51.478;5.692;2022-09-09T09:38:22;10.02;;;1.33;;
42832;SDS011;28479;51.478;5.692;2022-09-09T09:40:50;4.43;;;1.20;;
42832;SDS011;28479;51.478;5.692;2022-09-09T09:43:55;5.45;;;0.88;;
42832;SDS011;28479;51.478;5.692;2022-09-09T09:46:22;8.60;;;1.58;;
42832;SDS011;28479;51.478;5.692;2022-09-09T09:49:03;4.85;;;1.48;;
42832;SDS011;28479;51.478;5.692;2022-09-09T09:51:30;6.45;;;1.10;;
42832;SDS011;28479;51.478;5.692;2022-09-09T09:56:43;9.02;;;1.55;;
42832;SDS011;28479;51.478;5.692;2022-09-09T09:59:20;2.85;;;0.95;;
42832;SDS011;28479;51.478;5.692;2022-09-09T10:01:47;7.80;;;0.95;;
42832;SDS011;28479;51.478;5.692;2022-09-09T10:04:44;6.68;;;1.30;;
42832;SDS011;28479;51.478;5.692;2022-09-09T10:07:20;5.07;;;1.42;;
42832;SDS011;28479;51.478;5.692;2022-09-09T10:09:56;8.40;;;1.20;;
42832;SDS011;28479;51.478;5.692;2022-09-09T10:39:04;8.47;;;1.33;;
42832;SDS011;28479;51.478;5.692;2022-09-09T10:55:12;6.95;;;1.20;;
42832;SDS011;28479;51.478;5.692;2022-09-09T11:17:26;3.53;;;1.63;;
42832;SDS011;28479;51.478;5.692;2022-09-09T11:26:00;5.13;;;1.92;;
42832;SDS011;28479;51.478;5.692;2022-09-09T11:40:17;7.40;;;1.63;;
42832;SDS011;28479;51.478;5.692;2022-09-09T11:42:48;4.05;;;1.13;;
42832;SDS011;28479;51.478;5.692;2022-09-09T11:51:38;5.57;;;1.30;;
42832;SDS011;28479;51.478;5.692;2022-09-09T12:35:38;3.20;;;1.08;;
42832;SDS011;28479;51.478;5.692;2022-09-09T12:38:26;4.57;;;1.48;;
42832;SDS011;28479;51.478;5.692;2022-09-09T12:44:14;1.55;;;1.20;;
42832;SDS011;28479;51.478;5.692;2022-09-09T12:50:26;9.13;;;1.15;;
42832;SDS011;28479;51.478;5.692;2022-09-09T12:52:55;8.52;;;1.50;;
42832;SDS011;28479;51.478;5.692;2022-09-09T12:58:46;5.60;;;1.23;;
42832;SDS011;28479;51.478;5.692;2022-09-09T13:04:00;5.30;;;1.50;;
42832;SDS011;28479;51.478;5.692;2022-09-09T13:09:34;3.88;;;1.50;;
42832;SDS011;28479;51.478;5.692;2022-09-09T13:18:44;2.05;;;1.13;;
42832;SDS011;28479;51.478;5.692;2022-09-09T13:21:35;8.63;;;1.45;;
42832;SDS011;28479;51.478;5.692;2022-09-09T13:27:27;3.78;;;1.65;;
42832;SDS011;28479;51.478;5.692;2022-09-09T14:47:24;1.17;;;0.55;;
42832;SDS011;28479;51.478;5.692;2022-09-09T14:53:30;2.50;;;0.95;;
42832;SDS011;28479;51.478;5.692;2022-09-09T15:02:01;2.50;;;0.70;;
42832;SDS011;28479;51.478;5.692;2022-09-09T15:04:46;3.17;;;1.00;;
42832;SDS011;28479;51.478;5.692;2022-09-09T15:10:14;3.08;;;1.13;;
42832;SDS011;28479;51.478;5.692;2022-09-09T15:16:10;2.00;;;0.77;;
42832;SDS011;28479;51.478;5.692;2022-09-09T15:22:06;1.33;;;0.60;;
42832;SDS011;28479;51.478;5.692;2022-09-09T15:27:53;4.32;;;1.25;;
42832;SDS011;28479;51.478;5.692;2022-09-09T15:30:37;5.78;;;0.73;;
42832;SDS011;28479;51.478;5.692;2022-09-09T15:33:07;1.33;;;0.95;;
42832;SDS011;28479;51.478;5.692;2022-09-09T18:09:23;1.48;;;1.25;;
42832;SDS011;28479;51.478;5.692;2022-09-09T18:12:08;9.93;;;1.27;;
42832;SDS011;28479;51.478;5.692;2022-09-09T18:15:18;3.38;;;1.33;;
42832;SDS011;28479;51.478;5.692;2022-09-09T18:21:18;2.20;;;1.40;;
42832;SDS011;28479;51.478;5.692;2022-09-09T18:27:37;2.85;;;1.30;;
42832;SDS011;28479;51.478;5.692;2022-09-09T18:43:26;1.67;;;1.58;;
42832;SDS011;28479;51.478;5.692;2022-09-09T18:57:00;4.40;;;2.20;;
42832;SDS011;28479;51.478;5.692;2022-09-09T19:00:10;2.55;;;1.95;;
42832;SDS011;28479;51.478;5.692;2022-09-09T19:21:54;2.35;;;1.50;;
42832;SDS011;28479;51.478;5.692;2022-09-09T19:28:01;4.43;;;1.52;;
42832;SDS011;28479;51.478;5.692;2022-09-09T19:30:46;6.13;;;1.70;;
42832;SDS011;28479;51.478;5.692;2022-09-09T19:33:13;5.18;;;1.73;;
42832;SDS011;28479;51.478;5.692;2022-09-09T19:44:31;3.97;;;1.60;;
42832;SDS011;28479;51.478;5.692;2022-09-09T19:47:15;3.00;;;1.52;;
42832;SDS011;28479;51.478;5.692;2022-09-09T19:53:04;2.63;;;1.70;;
42832;SDS011;28479;51.478;5.692;2022-09-09T19:55:49;4.63;;;1.70;;
42832;SDS011;28479;51.478;5.692;2022-09-09T19:58:17;4.78;;;1.65;;
42832;SDS011;28479;51.478;5.692;2022-09-09T20:07:08;2.20;;;1.52;;
42832;SDS011;28479;51.478;5.692;2022-09-09T22:37:41;11.63;;;2.70;;
42832;SDS011;28479;51.478;5.692;2022-09-09T22:40:26;8.95;;;2.67;;
42832;SDS011;28479;51.478;5.692;2022-09-09T22:43:29;2.92;;;1.90;;
42832;SDS011;28479;51.478;5.692;2022-09-09T22:49:16;6.97;;;2.10;;
42832;SDS011;28479;51.478;5.692;2022-09-09T22:54:44;5.38;;;1.65;;
42832;SDS011;28479;51.478;5.692;2022-09-09T22:57:28;3.60;;;1.67;;
42832;SDS011;28479;51.478;5.692;2022-09-09T23:03:16;9.02;;;2.17;;
42832;SDS011;28479;51.478;5.692;2022-09-09T23:12:11;8.38;;;2.30;;
42832;SDS011;28479;51.478;5.692;2022-09-09T23:17:59;10.57;;;2.38;;
42832;SDS011;28479;51.478;5.692;2022-09-09T23:21:02;5.25;;;2.55;;
42832;SDS011;28479;51.478;5.692;2022-09-09T23:29:00;6.30;;;2.03;;
42832;SDS011;28479;51.478;5.692;2022-09-09T23:45:42;9.20;;;3.30;;
42832;SDS011;28479;51.478;5.692;2022-09-09T23:54:14;4.40;;;2.70;;
42832;SDS011;28479;51.478;5.692;2022-09-09T23:56:59;9.07;;;3.08;;
42832;SDS011;28479;51.478;5.692;2022-09-09T23:59:43;19.15;;;3.35;;
